createdAt,value
2023-10-04T00:00:17.213Z,11.87
2023-10-04T00:02:22.950Z,11.88
2023-10-04T00:04:27.347Z,11.89
2023-10-04T00:06:32.931Z,11.90
2023-10-04T00:08:37.201Z,11.89
2023-10-04T00:10:41.602Z,11.90
2023-10-04T00:12:45.467Z,11.89
2023-10-04T00:14:50.449Z,11.89
2023-10-04T00:16:56.324Z,11.84
2023-10-04T00:19:00.802Z,11.82
2023-10-04T00:21:07.876Z,11.79
2023-10-04T00:23:14.673Z,11.77
2023-10-04T00:25:22.922Z,11.72
2023-10-04T00:27:28.083Z,11.68
2023-10-04T00:29:32.550Z,11.65
2023-10-04T00:31:38.106Z,11.63
2023-10-04T00:33:43.159Z,11.61
2023-10-04T00:35:48.105Z,11.58
2023-10-04T00:37:57.795Z,11.56
2023-10-04T00:40:02.091Z,11.54
2023-10-04T00:42:07.240Z,11.54
2023-10-04T00:44:12.333Z,11.52
2023-10-04T00:46:15.786Z,11.49
2023-10-04T00:48:24.646Z,11.49
2023-10-04T00:50:33.676Z,11.47
2023-10-04T00:52:39.231Z,11.46
2023-10-04T00:54:44.625Z,11.44
2023-10-04T00:56:49.096Z,11.42
2023-10-04T00:58:55.589Z,11.38
2023-10-04T01:00:58.978Z,11.35
2023-10-04T01:03:04.159Z,11.34
2023-10-04T01:05:09.670Z,11.33
2023-10-04T01:07:17.995Z,11.33
2023-10-04T01:09:24.625Z,11.32
2023-10-04T01:11:36.164Z,11.32
2023-10-04T01:13:44.148Z,11.30
2023-10-04T01:15:50.776Z,11.30
2023-10-04T01:17:56.042Z,11.30
2023-10-04T01:20:00.632Z,11.30
2023-10-04T01:22:07.697Z,11.30
2023-10-04T01:24:12.769Z,11.30
2023-10-04T01:26:27.487Z,11.28
2023-10-04T01:28:32.430Z,11.30
2023-10-04T01:30:37.193Z,11.30
2023-10-04T01:32:41.531Z,11.30
2023-10-04T01:34:46.539Z,11.30
2023-10-04T01:36:50.978Z,11.28
2023-10-04T01:38:57.943Z,11.30
2023-10-04T01:41:02.355Z,11.31
2023-10-04T01:43:17.315Z,11.32
2023-10-04T01:45:22.683Z,11.33
2023-10-04T01:47:27.703Z,11.34
2023-10-04T01:49:34.118Z,11.37
2023-10-04T01:51:37.368Z,11.37
2023-10-04T01:53:44.002Z,11.39
2023-10-04T01:55:49.910Z,11.39
2023-10-04T01:57:54.691Z,11.41
2023-10-04T01:59:57.949Z,11.42
2023-10-04T02:02:02.614Z,11.45
2023-10-04T02:04:07.197Z,11.45
2023-10-04T02:06:12.115Z,11.44
2023-10-04T02:08:19.132Z,11.43
2023-10-04T02:10:24.028Z,11.43
2023-10-04T02:12:30.005Z,11.44
2023-10-04T02:14:35.250Z,11.45
2023-10-04T02:16:39.801Z,11.45
2023-10-04T02:18:44.082Z,11.46
2023-10-04T02:20:50.900Z,11.45
2023-10-04T02:22:57.628Z,11.45
2023-10-04T02:25:02.840Z,11.44
2023-10-04T02:27:08.646Z,11.43
2023-10-04T02:29:14.429Z,11.43
2023-10-04T02:31:18.096Z,11.42
2023-10-04T02:33:23.008Z,11.42
2023-10-04T02:35:28.842Z,11.42
2023-10-04T02:37:33.063Z,11.43
2023-10-04T02:39:38.880Z,11.43
2023-10-04T02:41:44.768Z,11.43
2023-10-04T02:43:47.678Z,11.43
2023-10-04T02:45:54.397Z,11.42
2023-10-04T02:47:59.341Z,11.43
2023-10-04T02:50:03.905Z,11.44
2023-10-04T02:52:12.774Z,11.44
2023-10-04T02:54:18.150Z,11.46
2023-10-04T02:56:24.145Z,11.47
2023-10-04T02:58:30.628Z,11.47
2023-10-04T03:00:44.140Z,11.47
2023-10-04T03:02:52.290Z,11.48
2023-10-04T03:04:57.668Z,11.49
2023-10-04T03:07:02.128Z,11.50
2023-10-04T03:09:08.119Z,11.49
2023-10-04T03:11:13.675Z,11.50
2023-10-04T03:13:23.736Z,11.51
2023-10-04T03:15:31.359Z,11.54
2023-10-04T03:17:36.111Z,11.53
2023-10-04T03:19:43.213Z,11.55
2023-10-04T03:21:47.977Z,11.55
2023-10-04T03:23:56.226Z,11.56
2023-10-04T03:26:05.524Z,11.56
2023-10-04T03:28:11.666Z,11.56
2023-10-04T03:30:17.361Z,11.58
2023-10-04T03:32:21.632Z,11.59
2023-10-04T03:34:25.732Z,11.60
2023-10-04T03:36:35.969Z,11.60
2023-10-04T03:38:43.942Z,11.61
2023-10-04T03:40:47.520Z,11.62
2023-10-04T03:42:53.462Z,11.62
2023-10-04T03:44:57.406Z,11.62
2023-10-04T03:47:01.967Z,11.62
2023-10-04T03:49:07.972Z,11.61
2023-10-04T03:51:11.986Z,11.61
2023-10-04T03:53:18.107Z,11.58
2023-10-04T03:55:21.934Z,11.58
2023-10-04T03:57:24.513Z,11.58
2023-10-04T03:59:28.158Z,11.56
2023-10-04T04:01:32.729Z,11.60
2023-10-04T04:03:37.012Z,11.61
2023-10-04T04:05:43.144Z,11.59
2023-10-04T04:07:46.987Z,11.59
2023-10-04T04:09:51.934Z,11.58
2023-10-04T04:11:55.411Z,11.57
2023-10-04T04:14:00.218Z,11.56
2023-10-04T04:16:11.069Z,11.56
2023-10-04T04:18:21.552Z,11.56
2023-10-04T04:20:29.764Z,11.57
2023-10-04T04:22:33.789Z,11.57
2023-10-04T04:24:37.958Z,11.58
2023-10-04T04:26:43.381Z,11.57
2023-10-04T04:28:49.227Z,11.58
2023-10-04T04:30:55.079Z,11.59
2023-10-04T04:32:59.014Z,11.61
2023-10-04T04:35:04.278Z,11.60
2023-10-04T04:37:09.798Z,11.63
2023-10-04T04:39:19.688Z,11.62
2023-10-04T04:41:26.923Z,11.63
2023-10-04T04:43:38.160Z,11.62
2023-10-04T04:45:42.863Z,11.59
2023-10-04T04:47:47.148Z,11.60
2023-10-04T04:49:51.109Z,11.61
2023-10-04T04:51:53.731Z,11.62
2023-10-04T04:53:57.500Z,11.61
2023-10-04T04:56:08.085Z,11.60
2023-10-04T04:58:14.557Z,11.61
2023-10-04T05:00:34.770Z,11.61
2023-10-04T05:02:38.460Z,11.60
2023-10-04T05:04:44.792Z,11.61
2023-10-04T05:06:48.522Z,11.60
2023-10-04T05:08:52.332Z,11.61
2023-10-04T05:10:57.326Z,11.61
2023-10-04T05:13:02.352Z,11.62
2023-10-04T05:15:20.200Z,11.60
2023-10-04T05:17:25.120Z,11.59
2023-10-04T05:19:30.646Z,11.59
2023-10-04T05:21:35.861Z,11.61
2023-10-04T05:23:40.042Z,11.59
2023-10-04T05:25:43.551Z,11.59
2023-10-04T05:27:48.449Z,11.58
2023-10-04T05:29:51.634Z,11.56
2023-10-04T05:31:55.433Z,11.56
2023-10-04T05:34:00.828Z,11.55
2023-10-04T05:36:05.600Z,11.54
2023-10-04T05:38:08.585Z,11.55
2023-10-04T05:40:19.022Z,11.55
2023-10-04T05:42:22.601Z,11.56
2023-10-04T05:44:26.080Z,11.55
2023-10-04T05:46:29.789Z,11.56
2023-10-04T05:48:33.467Z,11.57
2023-10-04T05:50:38.732Z,11.57
2023-10-04T05:52:42.692Z,11.57
2023-10-04T05:54:48.110Z,11.59
2023-10-04T05:56:51.741Z,11.60
2023-10-04T05:58:55.476Z,11.61
2023-10-04T06:00:58.979Z,11.61
2023-10-04T06:03:06.267Z,11.61
2023-10-04T06:05:09.539Z,11.62
2023-10-04T06:07:14.465Z,11.64
2023-10-04T06:09:29.465Z,11.67
2023-10-04T06:11:33.050Z,11.68
2023-10-04T06:13:36.462Z,11.70
2023-10-04T06:15:43.135Z,11.70
2023-10-04T06:17:47.885Z,11.72
2023-10-04T06:19:55.768Z,11.72
2023-10-04T06:21:59.565Z,11.73
2023-10-04T06:24:04.750Z,11.74
2023-10-04T06:26:08.369Z,11.75
2023-10-04T06:28:12.073Z,11.76
2023-10-04T06:30:16.619Z,11.76
2023-10-04T06:32:22.000Z,11.78
2023-10-04T06:34:24.492Z,11.78
2023-10-04T06:36:31.033Z,11.80
2023-10-04T06:38:34.545Z,11.81
2023-10-04T06:40:40.057Z,11.84
2023-10-04T06:42:47.161Z,11.87
2023-10-04T06:44:51.292Z,11.89
2023-10-04T06:46:55.360Z,11.89
2023-10-04T06:48:58.716Z,11.91
2023-10-04T06:51:02.184Z,11.91
2023-10-04T06:53:07.027Z,11.92
2023-10-04T06:55:11.700Z,11.93
2023-10-04T06:57:19.325Z,11.94
2023-10-04T06:59:23.730Z,11.97
2023-10-04T07:01:27.490Z,11.97
2023-10-04T07:03:31.170Z,11.99
2023-10-04T07:05:37.504Z,11.99
2023-10-04T07:07:41.195Z,12.00
2023-10-04T07:09:45.055Z,12.00
2023-10-04T07:11:49.338Z,12.02
2023-10-04T07:13:55.891Z,12.02
2023-10-04T07:15:59.353Z,12.02
2023-10-04T07:18:03.332Z,12.04
2023-10-04T07:20:08.789Z,12.04
2023-10-04T07:22:17.928Z,12.05
2023-10-04T07:24:24.241Z,12.05
2023-10-04T07:26:27.715Z,12.05
2023-10-04T07:28:30.132Z,12.04
2023-10-04T07:30:37.004Z,12.06
2023-10-04T07:32:41.299Z,12.06
2023-10-04T07:34:45.334Z,12.06
2023-10-04T07:36:48.962Z,12.08
2023-10-04T07:38:52.685Z,12.09
2023-10-04T07:40:56.928Z,12.10
2023-10-04T07:43:02.276Z,12.08
2023-10-04T07:45:07.060Z,12.11
2023-10-04T07:47:12.036Z,12.12
2023-10-04T07:49:15.248Z,12.14
2023-10-04T07:51:19.027Z,12.18
2023-10-04T07:53:23.144Z,12.23
2023-10-04T07:55:27.330Z,12.24
2023-10-04T07:57:30.161Z,12.28
2023-10-04T07:59:33.931Z,12.29
2023-10-04T08:01:40.636Z,12.30
2023-10-04T08:03:45.721Z,12.33
2023-10-04T08:05:49.298Z,12.34
2023-10-04T08:07:54.189Z,12.39
2023-10-04T08:09:59.858Z,12.41
2023-10-04T08:12:03.455Z,12.43
2023-10-04T08:14:08.821Z,12.46
2023-10-04T08:16:12.518Z,12.49
2023-10-04T08:18:18.332Z,12.50
2023-10-04T08:20:25.348Z,12.51
2023-10-04T08:22:31.144Z,12.53
2023-10-04T08:24:34.859Z,12.56
2023-10-04T08:26:38.689Z,12.59
2023-10-04T08:28:43.347Z,12.61
2023-10-04T08:30:47.025Z,12.63
2023-10-04T08:32:52.301Z,12.66
2023-10-04T08:34:56.395Z,12.68
2023-10-04T08:37:01.279Z,12.70
2023-10-04T08:39:12.232Z,12.73
2023-10-04T08:41:18.076Z,12.75
2023-10-04T08:43:21.741Z,12.77
2023-10-04T08:45:26.840Z,12.77
2023-10-04T08:47:31.000Z,12.78
2023-10-04T08:49:44.136Z,12.80
2023-10-04T08:51:54.835Z,12.80
2023-10-04T08:54:11.964Z,12.80
2023-10-04T08:56:18.151Z,12.80
2023-10-04T08:58:22.453Z,12.79
2023-10-04T09:00:32.062Z,12.78
2023-10-04T09:02:37.212Z,12.78
2023-10-04T09:04:42.261Z,12.77
2023-10-04T09:06:46.369Z,12.77
2023-10-04T09:08:51.043Z,12.79
2023-10-04T09:10:56.551Z,12.78
2023-10-04T09:13:04.573Z,12.79
2023-10-04T09:15:09.370Z,12.81
2023-10-04T09:17:15.386Z,12.83
2023-10-04T09:19:19.648Z,12.88
2023-10-04T09:21:23.827Z,12.94
2023-10-04T09:23:29.470Z,12.99
2023-10-04T09:25:40.462Z,13.04
2023-10-04T09:27:56.472Z,13.09
2023-10-04T09:30:00.946Z,13.14
2023-10-04T09:32:06.784Z,13.20
2023-10-04T09:34:17.074Z,13.23
2023-10-04T09:36:34.783Z,13.33
2023-10-04T09:38:39.440Z,13.51
2023-10-04T09:40:52.020Z,13.75
2023-10-04T09:42:57.714Z,13.99
2023-10-04T09:45:09.590Z,14.21
2023-10-04T09:47:13.382Z,14.43
2023-10-04T09:49:17.627Z,14.60
2023-10-04T09:51:23.602Z,14.75
2023-10-04T09:53:26.219Z,14.86
2023-10-04T09:55:33.703Z,15.00
2023-10-04T09:57:39.433Z,15.11
2023-10-04T09:59:47.027Z,15.18
2023-10-04T10:01:55.637Z,15.23
2023-10-04T10:04:01.208Z,15.29
2023-10-04T10:06:07.688Z,15.42
2023-10-04T10:08:15.512Z,15.53
2023-10-04T10:10:22.523Z,15.62
2023-10-04T10:12:26.953Z,15.63
2023-10-04T10:14:33.353Z,15.67
2023-10-04T10:16:39.121Z,15.74
2023-10-04T10:18:43.550Z,15.84
2023-10-04T10:20:48.095Z,15.90
2023-10-04T10:23:15.972Z,15.95
2023-10-04T10:25:18.743Z,16.03
2023-10-04T10:27:23.978Z,16.12
2023-10-04T10:29:31.219Z,16.19
2023-10-04T10:31:36.818Z,16.24
2023-10-04T10:33:41.927Z,16.33
2023-10-04T10:36:01.415Z,16.38
2023-10-04T10:38:48.814Z,16.37
2023-10-04T10:40:54.925Z,16.37
2023-10-04T10:43:12.073Z,16.43
2023-10-04T10:45:29.869Z,16.49
2023-10-04T10:47:49.378Z,16.51
2023-10-04T10:50:00.787Z,16.48
2023-10-04T10:52:03.878Z,16.46
2023-10-04T10:54:09.107Z,16.45
2023-10-04T10:56:16.157Z,16.46
2023-10-04T10:58:20.660Z,16.48
2023-10-04T11:00:25.659Z,16.47
2023-10-04T11:02:30.389Z,16.45
2023-10-04T11:04:33.622Z,16.46
2023-10-04T11:06:39.848Z,16.53
2023-10-04T11:08:44.594Z,16.61
2023-10-04T11:10:48.801Z,16.68
2023-10-04T11:12:56.925Z,16.70
2023-10-04T11:15:01.732Z,16.70
2023-10-04T11:17:06.964Z,16.66
2023-10-04T11:19:12.210Z,16.66
2023-10-04T11:21:17.078Z,16.66
2023-10-04T11:23:21.194Z,16.62
2023-10-04T11:25:27.894Z,16.60
2023-10-04T11:27:33.171Z,16.53
2023-10-04T11:29:40.250Z,16.49
2023-10-04T11:31:46.551Z,16.50
2023-10-04T11:33:58.001Z,16.51
2023-10-04T11:36:04.215Z,16.48
2023-10-04T11:38:17.226Z,16.44
2023-10-04T11:40:27.986Z,16.42
2023-10-04T11:42:33.490Z,16.45
2023-10-04T11:44:43.349Z,16.42
2023-10-04T11:46:56.925Z,16.43
2023-10-04T11:49:13.280Z,16.52
2023-10-04T11:51:30.355Z,16.53
2023-10-04T11:53:35.765Z,16.48
2023-10-04T11:55:40.434Z,16.42
2023-10-04T11:57:44.464Z,16.38
2023-10-04T11:59:50.082Z,16.38
2023-10-04T12:01:56.653Z,16.35
2023-10-04T12:04:04.193Z,16.34
2023-10-04T12:06:09.196Z,16.33
2023-10-04T12:08:13.106Z,16.35
2023-10-04T12:10:17.553Z,16.42
2023-10-04T12:12:22.151Z,16.47
2023-10-04T12:14:25.052Z,16.49
2023-10-04T12:16:30.791Z,16.52
2023-10-04T12:18:33.921Z,16.51
2023-10-04T12:20:38.169Z,16.42
2023-10-04T12:22:41.386Z,16.38
2023-10-04T12:24:46.434Z,16.24
2023-10-04T12:26:56.644Z,16.14
2023-10-04T12:29:00.522Z,16.02
2023-10-04T12:31:03.755Z,15.95
2023-10-04T12:33:10.336Z,15.88
2023-10-04T12:35:14.932Z,15.85
2023-10-04T12:37:18.910Z,15.84
2023-10-04T12:39:23.072Z,15.80
2023-10-04T12:41:27.182Z,15.78
2023-10-04T12:43:31.574Z,15.76
2023-10-04T12:45:35.310Z,15.76
2023-10-04T12:47:39.627Z,15.78
2023-10-04T12:49:45.328Z,15.79
2023-10-04T12:51:49.016Z,15.81
2023-10-04T12:53:53.588Z,15.81
2023-10-04T12:55:57.378Z,15.81
2023-10-04T12:58:01.074Z,15.83
2023-10-04T13:00:15.304Z,15.83
2023-10-04T13:02:20.061Z,15.82
2023-10-04T13:04:24.190Z,15.82
2023-10-04T13:06:29.467Z,15.83
2023-10-04T13:08:33.425Z,15.86
2023-10-04T13:10:38.463Z,15.93
2023-10-04T13:12:43.190Z,16.03
2023-10-04T13:14:47.149Z,16.07
2023-10-04T13:16:51.127Z,16.10
2023-10-04T13:18:55.793Z,16.14
2023-10-04T13:20:59.998Z,16.20
2023-10-04T13:23:06.513Z,16.28
2023-10-04T13:25:11.157Z,16.29
2023-10-04T13:27:15.066Z,16.27
2023-10-04T13:29:18.667Z,16.23
2023-10-04T13:31:23.649Z,16.20
2023-10-04T13:33:27.637Z,16.19
2023-10-04T13:35:31.420Z,16.17
2023-10-04T13:37:35.262Z,16.19
2023-10-04T13:39:40.638Z,16.24
2023-10-04T13:41:44.706Z,16.30
2023-10-04T13:43:50.067Z,16.34
2023-10-04T13:45:54.762Z,16.31
2023-10-04T13:48:05.042Z,16.24
2023-10-04T13:50:09.305Z,16.19
2023-10-04T13:52:13.390Z,16.17
2023-10-04T13:54:17.436Z,16.16
2023-10-04T13:56:23.721Z,16.15
2023-10-04T13:58:27.677Z,16.15
2023-10-04T14:00:30.257Z,16.17
2023-10-04T14:02:34.032Z,16.18
2023-10-04T14:04:37.741Z,16.20
2023-10-04T14:06:41.709Z,16.20
2023-10-04T14:08:45.465Z,16.19
2023-10-04T14:10:50.684Z,16.20
2023-10-04T14:12:59.537Z,16.21
2023-10-04T14:15:04.010Z,16.22
2023-10-04T14:17:10.555Z,16.20
2023-10-04T14:19:14.531Z,16.18
2023-10-04T14:21:19.209Z,16.20
2023-10-04T14:23:25.510Z,16.22
2023-10-04T14:25:29.969Z,16.20
2023-10-04T14:27:34.829Z,16.14
2023-10-04T14:29:42.624Z,16.05
2023-10-04T14:31:46.494Z,15.97
2023-10-04T14:33:50.285Z,15.93
2023-10-04T14:35:59.634Z,15.92
2023-10-04T14:38:04.695Z,15.94
2023-10-04T14:40:15.786Z,15.96
2023-10-04T14:42:20.239Z,15.94
2023-10-04T14:44:23.979Z,15.93
2023-10-04T14:46:29.147Z,15.96
2023-10-04T14:48:33.304Z,15.98
2023-10-04T14:50:39.178Z,15.99
2023-10-04T14:52:45.742Z,16.01
2023-10-04T14:54:50.368Z,15.99
2023-10-04T14:56:54.994Z,15.97
2023-10-04T14:59:00.722Z,15.94
2023-10-04T15:01:07.603Z,15.93
2023-10-04T15:03:14.242Z,15.87
2023-10-04T15:05:19.937Z,15.82
2023-10-04T15:07:24.291Z,15.77
2023-10-04T15:09:29.162Z,15.73
2023-10-04T15:11:35.361Z,15.70
2023-10-04T15:13:38.897Z,15.68
2023-10-04T15:15:54.383Z,15.65
2023-10-04T15:18:09.724Z,15.62
2023-10-04T15:20:17.620Z,15.62
2023-10-04T15:22:29.209Z,15.56
2023-10-04T15:24:33.737Z,15.52
2023-10-04T15:26:37.467Z,15.49
2023-10-04T15:28:47.721Z,15.45
2023-10-04T15:30:52.793Z,15.40
2023-10-04T15:32:57.240Z,15.35
2023-10-04T15:35:02.668Z,15.29
2023-10-04T15:37:08.530Z,15.26
2023-10-04T15:39:22.138Z,15.23
2023-10-04T15:41:26.461Z,15.19
2023-10-04T15:43:31.330Z,15.17
2023-10-04T15:45:35.409Z,15.16
2023-10-04T15:47:38.957Z,15.16
2023-10-04T15:49:43.033Z,15.15
2023-10-04T15:51:46.284Z,15.15
2023-10-04T15:53:53.727Z,15.13
2023-10-04T15:55:58.719Z,15.13
2023-10-04T15:58:03.229Z,15.11
2023-10-04T16:00:12.761Z,15.10
2023-10-04T16:02:16.775Z,15.07
2023-10-04T16:04:24.309Z,15.04
2023-10-04T16:06:29.196Z,15.00
2023-10-04T16:08:32.179Z,14.98
2023-10-04T16:10:39.302Z,14.95
2023-10-04T16:12:43.514Z,14.93
2023-10-04T16:14:47.588Z,14.92
2023-10-04T16:16:52.158Z,14.89
2023-10-04T16:18:56.996Z,14.86
2023-10-04T16:21:02.194Z,14.86
2023-10-04T16:23:06.756Z,14.85
2023-10-04T16:25:10.856Z,14.86
2023-10-04T16:27:16.647Z,14.86
2023-10-04T16:29:20.833Z,14.86
2023-10-04T16:31:24.765Z,14.85
2023-10-04T16:33:28.776Z,14.87
2023-10-04T16:35:32.944Z,14.87
2023-10-04T16:37:36.260Z,14.87
2023-10-04T16:39:40.118Z,14.86
2023-10-04T16:41:44.030Z,14.87
2023-10-04T16:43:50.194Z,14.85
2023-10-04T16:45:56.617Z,14.84
2023-10-04T16:48:01.954Z,14.82
2023-10-04T16:50:07.088Z,14.82
2023-10-04T16:52:13.633Z,14.81
2023-10-04T16:54:17.843Z,14.78
2023-10-04T16:56:24.563Z,14.77
2023-10-04T16:58:28.827Z,14.75
2023-10-04T17:00:34.262Z,14.74
2023-10-04T17:02:37.461Z,14.70
2023-10-04T17:04:41.191Z,14.68
2023-10-04T17:06:45.264Z,14.64
2023-10-04T17:08:49.303Z,14.60
2023-10-04T17:10:53.265Z,14.56
2023-10-04T17:12:57.418Z,14.53
2023-10-04T17:15:01.600Z,14.50
2023-10-04T17:17:07.374Z,14.46
2023-10-04T17:19:11.388Z,14.43
2023-10-04T17:21:15.803Z,14.38
2023-10-04T17:23:20.010Z,14.36
2023-10-04T17:25:23.990Z,14.33
2023-10-04T17:27:27.337Z,14.31
2023-10-04T17:29:31.305Z,14.28
2023-10-04T17:31:35.474Z,14.25
2023-10-04T17:33:40.932Z,14.21
2023-10-04T17:35:45.012Z,14.20
2023-10-04T17:37:49.241Z,14.18
2023-10-04T17:39:53.566Z,14.18
2023-10-04T17:41:59.651Z,14.16
2023-10-04T17:44:03.724Z,14.13
2023-10-04T17:46:08.102Z,14.11
2023-10-04T17:48:12.168Z,14.10
2023-10-04T17:50:17.882Z,14.08
2023-10-04T17:52:22.384Z,14.06
2023-10-04T17:54:26.652Z,14.06
2023-10-04T17:56:34.679Z,14.05
2023-10-04T17:58:39.278Z,14.05
2023-10-04T18:00:42.960Z,14.03
2023-10-04T18:02:48.400Z,14.03
2023-10-04T18:04:52.837Z,14.02
2023-10-04T18:06:58.195Z,14.02
2023-10-04T18:09:02.966Z,14.02
2023-10-04T18:11:09.146Z,14.03
2023-10-04T18:13:13.879Z,14.02
2023-10-04T18:15:18.983Z,14.02
2023-10-04T18:17:23.968Z,14.03
2023-10-04T18:19:28.518Z,14.03
2023-10-04T18:21:32.546Z,14.03
2023-10-04T18:23:38.685Z,14.02
2023-10-04T18:25:42.943Z,14.04
2023-10-04T18:27:47.086Z,14.03
2023-10-04T18:29:50.927Z,14.02
2023-10-04T18:31:54.709Z,14.03
2023-10-04T18:33:58.829Z,14.02
2023-10-04T18:36:03.664Z,14.02
2023-10-04T18:38:07.396Z,14.02
2023-10-04T18:40:14.658Z,14.01
2023-10-04T18:42:19.001Z,14.02
2023-10-04T18:44:23.457Z,14.00
2023-10-04T18:46:27.806Z,14.01
2023-10-04T18:48:32.041Z,13.99
2023-10-04T18:50:35.999Z,13.99
2023-10-04T18:52:40.227Z,13.99
2023-10-04T18:54:44.189Z,13.99
2023-10-04T18:56:49.984Z,13.97
2023-10-04T18:58:54.615Z,13.96
2023-10-04T19:01:00.685Z,13.96
2023-10-04T19:03:03.935Z,13.94
2023-10-04T19:05:10.162Z,13.93
2023-10-04T19:07:16.325Z,13.92
2023-10-04T19:09:24.538Z,13.92
2023-10-04T19:11:30.988Z,13.92
2023-10-04T19:13:40.650Z,13.92
2023-10-04T19:15:47.452Z,13.90
2023-10-04T19:17:52.015Z,13.91
2023-10-04T19:19:57.221Z,13.90
2023-10-04T19:22:02.093Z,13.90
2023-10-04T19:24:08.894Z,13.90
2023-10-04T19:26:17.256Z,13.88
2023-10-04T19:28:22.437Z,13.89
2023-10-04T19:30:35.386Z,13.89
2023-10-04T19:32:40.850Z,13.87
2023-10-04T19:34:46.261Z,13.88
2023-10-04T19:36:50.392Z,13.87
2023-10-04T19:38:56.859Z,13.87
2023-10-04T19:41:01.501Z,13.86
2023-10-04T19:43:08.170Z,13.87
2023-10-04T19:45:14.208Z,13.87
2023-10-04T19:47:20.301Z,13.85
2023-10-04T19:49:24.845Z,13.84
2023-10-04T19:51:30.140Z,13.83
2023-10-04T19:53:34.847Z,13.82
2023-10-04T19:55:40.341Z,13.82
2023-10-04T19:57:45.327Z,13.84
2023-10-04T19:59:51.168Z,13.84
2023-10-04T20:01:55.272Z,13.84
2023-10-04T20:04:03.137Z,13.85
2023-10-04T20:06:11.652Z,13.83
2023-10-04T20:08:17.615Z,13.84
2023-10-04T20:10:22.343Z,13.84
2023-10-04T20:12:25.890Z,13.83
2023-10-04T20:14:33.276Z,13.83
2023-10-04T20:16:38.692Z,13.82
2023-10-04T20:18:43.153Z,13.81
2023-10-04T20:20:48.744Z,13.82
2023-10-04T20:22:53.205Z,13.81
2023-10-04T20:24:57.877Z,13.82
2023-10-04T20:27:06.505Z,13.81
2023-10-04T20:29:10.549Z,13.80
2023-10-04T20:31:15.032Z,13.80
2023-10-04T20:33:22.307Z,13.80
2023-10-04T20:35:25.588Z,13.80
2023-10-04T20:37:32.837Z,13.80
2023-10-04T20:39:40.626Z,13.79
2023-10-04T20:41:44.769Z,13.79
2023-10-04T20:43:49.314Z,13.78
2023-10-04T20:45:54.025Z,13.78
2023-10-04T20:47:59.399Z,13.78
2023-10-04T20:50:07.732Z,13.77
2023-10-04T20:52:12.941Z,13.79
2023-10-04T20:54:25.245Z,13.78
2023-10-04T20:56:33.031Z,13.78
2023-10-04T20:58:37.180Z,13.77
2023-10-04T21:00:42.199Z,13.77
2023-10-04T21:02:49.729Z,13.77
2023-10-04T21:04:53.799Z,13.77
2023-10-04T21:06:58.825Z,13.77
2023-10-04T21:09:03.310Z,13.75
2023-10-04T21:11:11.271Z,13.75
2023-10-04T21:13:15.638Z,13.76
2023-10-04T21:15:21.025Z,13.76
2023-10-04T21:17:25.514Z,13.75
2023-10-04T21:19:32.842Z,13.75
2023-10-04T21:21:37.488Z,13.73
2023-10-04T21:23:42.520Z,13.72
2023-10-04T21:25:46.905Z,13.72
2023-10-04T21:27:53.499Z,13.70
2023-10-04T21:29:57.219Z,13.70
2023-10-04T21:32:01.597Z,13.68
2023-10-04T21:34:12.340Z,13.69
2023-10-04T21:36:18.822Z,13.69
2023-10-04T21:38:28.194Z,13.69
2023-10-04T21:40:33.840Z,13.68
2023-10-04T21:42:38.863Z,13.68
2023-10-04T21:44:48.201Z,13.69
2023-10-04T21:46:52.627Z,13.69
2023-10-04T21:48:57.759Z,13.69
2023-10-04T21:51:02.769Z,13.69
2023-10-04T21:53:08.133Z,13.70
2023-10-04T21:55:13.649Z,13.70
2023-10-04T21:57:17.936Z,13.71
2023-10-04T21:59:22.198Z,13.71
2023-10-04T22:01:29.721Z,13.70
2023-10-04T22:03:36.386Z,13.70
2023-10-04T22:05:41.229Z,13.72
2023-10-04T22:07:47.495Z,13.74
2023-10-04T22:09:52.824Z,13.74
2023-10-04T22:11:57.268Z,13.74
2023-10-04T22:14:01.574Z,13.76
2023-10-04T22:16:06.387Z,13.75
2023-10-04T22:18:14.706Z,13.76
2023-10-04T22:20:19.368Z,13.76
2023-10-04T22:22:23.941Z,13.76
2023-10-04T22:24:28.316Z,13.77
2023-10-04T22:26:32.862Z,13.76
2023-10-04T22:28:37.208Z,13.76
2023-10-04T22:30:41.693Z,13.76
2023-10-04T22:32:46.664Z,13.76
2023-10-04T22:34:53.678Z,13.78
2023-10-04T22:36:58.594Z,13.77
2023-10-04T22:39:04.668Z,13.77
2023-10-04T22:41:09.224Z,13.78
2023-10-04T22:43:13.834Z,13.77
2023-10-04T22:45:21.356Z,13.77
2023-10-04T22:47:27.716Z,13.78
2023-10-04T22:49:32.532Z,13.79
2023-10-04T22:51:38.783Z,13.80
2023-10-04T22:53:43.620Z,13.79
2023-10-04T22:55:47.617Z,13.78
2023-10-04T22:57:52.350Z,13.79
2023-10-04T22:59:57.837Z,13.79
2023-10-04T23:02:02.381Z,13.80
2023-10-04T23:04:08.374Z,13.80
2023-10-04T23:06:14.166Z,13.81
2023-10-04T23:08:19.677Z,13.82
2023-10-04T23:10:24.282Z,13.81
2023-10-04T23:12:28.076Z,13.82
2023-10-04T23:14:37.016Z,13.83
2023-10-04T23:16:45.143Z,13.83
2023-10-04T23:18:51.549Z,13.85
2023-10-04T23:21:08.652Z,13.86
2023-10-04T23:23:13.808Z,13.85
2023-10-04T23:25:21.783Z,13.86
2023-10-04T23:27:29.598Z,13.87
2023-10-04T23:29:33.364Z,13.87
2023-10-04T23:31:38.884Z,13.87
2023-10-04T23:33:46.443Z,13.88
2023-10-04T23:35:58.847Z,13.90
2023-10-04T23:38:15.057Z,13.90
2023-10-04T23:40:25.918Z,13.90
2023-10-04T23:42:35.480Z,13.90
2023-10-04T23:44:42.193Z,13.91
2023-10-04T23:46:46.588Z,13.92
2023-10-04T23:48:51.263Z,13.92
2023-10-04T23:50:57.566Z,13.93
2023-10-04T23:53:04.041Z,13.94
2023-10-04T23:55:09.467Z,13.94
2023-10-04T23:57:20.037Z,13.95
2023-10-04T23:59:25.174Z,13.94
